Navan Bearbrook Airport

CA-0088 · 安大略, 加拿大

罗盘
风向 的 风向 140° Navan Bearbrook Airport 17/35
风: 9 kt, 3 beaufort

8 kt

5 kt
改变
0 5.000 10.000 15.000 20.000
BKN 10.000 ft
OVC 13.000 ft
METAR CYOW 030651Z 14009KT 15SM -RA BKN100 OVC130 03/M03 A2994 RMK AC7AC1 SLP145

METAR Navan Bearbrook Airport - CA-0088

Navan Bearbrook Airport是,加拿大中的小机场。 该机场有一条跑道: 17/35. 该领域的国际民航组织标志是CA-0088.

这份报告是针对2022年12月3日 01:51, 当地时间在渥太华麦克唐纳-卡蒂埃国际机场进行的。

机场观察

风向为140°,速度为9 kt。

可见度为15 mi。

有碎云在10.000 ft的高度 和 乌云密布在13.000 ft的高度。 破损或更高的上限为10.000 ft。

当前天气为光 雨。 温度为3 °C,阵风为-3 °C。 露点为-3 °C,相对湿度为65%。 海平面上的气压为29,94 inHg (QNH)。

白天

今天,太阳从07:22升起,在16:19降落。 这适用于Navan Bearbrook Airport,世界夏令时可能有所不同。 当地时间与世界标准时间之间的时差为-5 小时。 当前,没有夏令时有效。

公司介绍

我们没有关于这个机场的公司信息。

体会

到Vliegles.nl去找飞行课程,跳伞和其他飞行体验。 浏览页面,了解Navan Bearbrook Airport附近所有可用的活动。 你也可以使用搜索功能来寻找你所在地附近的特定飞行课程、跳伞或其他飞行体验。

跑道

Id 标题 侧风 逆风 侧风 %
17/35 170°-350° 5 kt 8 kt 50 %

逆风成分最大的方向会被突出显示,并用于横风计算。 这并不一定意味着这个方向在使用。

乌云

10.000 ft BKN 碎云
13.000 ft OVC 乌云密布

温度 & 天气

天气 光 雨
温度 3 °C
露点 -3 °C
相对湿度 65%
风寒 -3 °C
Kp-index 0 (0-9)

评论

SLP145海平面压力为29,96 inHg (29,96 inHg)
AC7AC1

白天

日出
07:24 (5:19)
中午
11:52
日落
16:20

小工具

你想在你的网站上有一个关于Navan Bearbrook Airport的当前航空天气(METAR)的小部件吗?

显示HTML代码

我们和第三方通过cookies跟踪您在我们网站上的互联网行为。如果你继续,我们认为你同意我们的饼干政策